createdAt,value
2018-05-26T00:00:42.610Z,7.37
2018-05-26T00:03:10.043Z,6.70
2018-05-26T00:05:37.475Z,7.03
2018-05-26T00:08:05.294Z,6.50
2018-05-26T00:10:32.740Z,6.60
2018-05-26T00:13:00.182Z,7.70
2018-05-26T00:15:27.614Z,8.67
2018-05-26T00:17:55.436Z,7.27
2018-05-26T00:20:23.266Z,7.07
2018-05-26T00:23:06.427Z,7.73
2018-05-26T00:25:34.688Z,6.63
2018-05-26T00:28:02.458Z,6.87
2018-05-26T00:30:29.903Z,6.60
2018-05-26T00:32:57.332Z,7.00
2018-05-26T00:35:25.539Z,6.80
2018-05-26T00:37:52.968Z,7.63
2018-05-26T00:40:21.162Z,7.10
2018-05-26T00:42:48.610Z,6.53
2018-05-26T00:45:16.039Z,7.33
2018-05-26T00:47:43.467Z,6.90
2018-05-26T00:50:10.900Z,7.13
2018-05-26T00:52:38.347Z,6.90
2018-05-26T00:55:05.777Z,7.50
2018-05-26T00:57:33.214Z,6.30
2018-05-26T01:00:00.641Z,7.80
2018-05-26T01:02:28.075Z,7.00
2018-05-26T01:04:55.509Z,7.13
2018-05-26T01:07:22.948Z,8.90
2018-05-26T01:09:50.773Z,7.00
2018-05-26T01:12:18.210Z,8.60
2018-05-26T01:14:45.635Z,7.00
2018-05-26T01:17:13.070Z,7.47
2018-05-26T01:19:40.896Z,6.40
2018-05-26T01:22:08.726Z,8.10
2018-05-26T01:24:36.154Z,6.57
2018-05-26T01:27:03.595Z,7.70
2018-05-26T01:29:31.784Z,6.97
2018-05-26T01:31:59.998Z,6.60
2018-05-26T01:34:27.423Z,7.03
2018-05-26T01:36:55.636Z,6.73
2018-05-26T01:39:23.073Z,6.47
2018-05-26T01:41:52.286Z,7.27
2018-05-26T01:44:20.530Z,8.37
2018-05-26T01:46:48.367Z,7.73
2018-05-26T01:49:15.803Z,8.17
2018-05-26T01:51:43.255Z,7.47
2018-05-26T01:54:10.680Z,7.00
2018-05-26T01:56:38.887Z,7.43
2018-05-26T01:59:06.323Z,7.17
2018-05-26T02:01:33.760Z,8.23
2018-05-26T02:04:01.194Z,7.90
2018-05-26T02:06:29.403Z,8.13
2018-05-26T02:08:57.222Z,7.23
2018-05-26T02:11:24.657Z,6.63
2018-05-26T02:13:52.091Z,7.93
2018-05-26T02:16:19.511Z,7.50
2018-05-26T02:18:46.946Z,6.20
2018-05-26T02:21:15.155Z,6.67
2018-05-26T02:23:42.575Z,7.30
2018-05-26T02:26:10.776Z,10.40
2018-05-26T02:28:38.206Z,9.40
2018-05-26T02:31:06.413Z,7.90
2018-05-26T02:33:33.843Z,7.50
2018-05-26T02:36:02.048Z,8.57
2018-05-26T02:38:29.487Z,7.40
2018-05-26T02:40:56.923Z,7.03
2018-05-26T02:43:25.133Z,8.00
2018-05-26T02:45:53.706Z,7.10
2018-05-26T02:48:21.139Z,7.50
2018-05-26T02:50:48.567Z,8.47
2018-05-26T02:53:16.411Z,8.57
2018-05-26T02:55:44.231Z,8.07
2018-05-26T02:58:11.661Z,7.03
2018-05-26T03:00:39.103Z,7.87
2018-05-26T03:03:06.534Z,10.50
2018-05-26T03:05:39.724Z,8.60
2018-05-26T03:08:12.871Z,8.60
2018-05-26T03:10:46.243Z,10.83
2018-05-26T03:13:19.685Z,8.33
2018-05-26T03:18:57.910Z,8.60
2018-05-26T03:21:25.349Z,8.83
2018-05-26T03:23:53.174Z,9.30
2018-05-26T03:26:20.602Z,8.60
2018-05-26T03:28:48.035Z,9.37
2018-05-26T03:31:15.468Z,9.63
2018-05-26T03:33:42.915Z,8.23
2018-05-26T03:36:10.343Z,9.10
2018-05-26T03:38:38.175Z,10.37
2018-05-26T03:41:05.612Z,11.13
2018-05-26T03:43:33.807Z,9.70
2018-05-26T03:46:01.252Z,9.20
2018-05-26T03:48:28.677Z,10.50
2018-05-26T03:50:56.102Z,8.20
2018-05-26T03:53:23.554Z,7.90
2018-05-26T03:56:02.848Z,8.17
2018-05-26T03:58:42.973Z,8.27
2018-05-26T04:01:10.806Z,7.97
2018-05-26T04:03:38.235Z,8.70
2018-05-26T04:06:05.671Z,7.97
2018-05-26T04:08:33.878Z,9.30
2018-05-26T04:11:01.322Z,8.50
2018-05-26T04:13:28.761Z,9.40
2018-05-26T04:15:56.954Z,9.07
2018-05-26T04:18:24.374Z,9.03
2018-05-26T04:20:51.806Z,9.33
2018-05-26T04:23:19.630Z,9.80
2018-05-26T04:25:47.466Z,9.93
2018-05-26T04:28:15.688Z,10.73
2018-05-26T04:30:43.106Z,10.13
2018-05-26T04:33:11.294Z,9.97
2018-05-26T04:35:38.742Z,11.10
2018-05-26T04:38:06.174Z,12.67
2018-05-26T04:40:33.613Z,10.33
2018-05-26T04:43:01.815Z,11.63
2018-05-26T04:45:29.667Z,11.80
2018-05-26T04:47:57.102Z,11.97
2018-05-26T04:50:24.543Z,12.30
2018-05-26T04:52:51.984Z,10.77
2018-05-26T04:55:19.419Z,11.47
2018-05-26T04:57:46.864Z,10.67
2018-05-26T05:00:15.071Z,11.33
2018-05-26T05:02:42.501Z,10.40
2018-05-26T05:05:09.938Z,9.83
2018-05-26T05:07:38.130Z,9.53
2018-05-26T05:10:05.565Z,10.30
2018-05-26T05:12:33.002Z,11.23
2018-05-26T05:15:00.476Z,12.27
2018-05-26T05:17:27.904Z,12.23
2018-05-26T05:19:55.739Z,13.00
2018-05-26T05:22:23.183Z,18.20
2018-05-26T05:24:50.607Z,11.40
2018-05-26T05:27:18.048Z,10.70
2018-05-26T05:29:45.883Z,10.87
2018-05-26T05:32:14.093Z,19.20
2018-05-26T05:34:41.530Z,11.17
2018-05-26T05:37:08.966Z,14.03
2018-05-26T05:39:36.406Z,13.80
2018-05-26T05:42:03.846Z,14.70
2018-05-26T05:44:31.284Z,15.60
2018-05-26T05:46:59.118Z,11.40
2018-05-26T05:49:26.564Z,11.97
2018-05-26T05:51:54.004Z,15.97
2018-05-26T05:54:21.437Z,11.77
2018-05-26T05:56:49.640Z,12.13
2018-05-26T05:59:17.078Z,16.50
2018-05-26T06:01:44.921Z,10.83
2018-05-26T06:04:13.125Z,11.63
2018-05-26T06:06:40.559Z,12.73
2018-05-26T06:09:08.402Z,12.10
2018-05-26T06:11:35.851Z,13.70
2018-05-26T06:14:04.044Z,13.37
2018-05-26T06:16:32.255Z,11.33
2018-05-26T06:18:59.681Z,10.53
2018-05-26T06:21:27.911Z,11.40
2018-05-26T06:23:55.358Z,12.30
2018-05-26T06:26:23.969Z,11.47
2018-05-26T06:28:51.383Z,9.60
2018-05-26T06:31:18.811Z,11.93
2018-05-26T06:33:47.015Z,11.77
2018-05-26T06:36:14.464Z,10.70
2018-05-26T06:38:41.894Z,9.70
2018-05-26T06:41:10.087Z,10.00
2018-05-26T06:43:37.523Z,8.57
2018-05-26T06:46:05.734Z,10.17
2018-05-26T06:48:33.171Z,10.50
2018-05-26T06:51:00.683Z,8.47
2018-05-26T06:53:28.123Z,10.10
2018-05-26T06:55:55.558Z,9.73
2018-05-26T06:58:23.010Z,12.27
2018-05-26T07:00:50.440Z,8.97
2018-05-26T07:03:18.641Z,10.23
2018-05-26T07:05:46.469Z,8.47
2018-05-26T07:08:14.679Z,9.20
2018-05-26T07:10:42.119Z,8.00
2018-05-26T07:13:09.563Z,7.30
2018-05-26T07:15:37.758Z,7.70
2018-05-26T07:18:06.007Z,8.87
2018-05-26T07:20:33.448Z,8.90
2018-05-26T07:23:00.891Z,9.73
2018-05-26T07:25:28.327Z,8.60
2018-05-26T07:27:55.790Z,7.53
2018-05-26T07:30:23.206Z,7.20
2018-05-26T07:32:50.651Z,8.60
2018-05-26T07:35:19.007Z,6.63
2018-05-26T07:37:46.416Z,8.47
2018-05-26T07:40:14.260Z,7.33
2018-05-26T07:42:41.691Z,6.57
2018-05-26T07:45:09.903Z,6.80
2018-05-26T07:47:38.100Z,6.90
2018-05-26T07:50:05.930Z,5.30
2018-05-26T07:52:33.366Z,7.53
2018-05-26T07:55:01.579Z,6.13
2018-05-26T07:57:29.028Z,6.50
2018-05-26T07:59:56.470Z,7.20
2018-05-26T08:02:23.904Z,5.80
2018-05-26T08:04:52.114Z,5.27
2018-05-26T08:07:19.661Z,5.63
2018-05-26T08:09:47.166Z,6.23
2018-05-26T08:12:14.596Z,5.43
2018-05-26T08:14:42.032Z,5.00
2018-05-26T08:17:09.525Z,4.53
2018-05-26T08:19:37.685Z,7.53
2018-05-26T08:22:05.116Z,5.20
2018-05-26T08:24:32.947Z,4.70
2018-05-26T08:27:00.379Z,4.63
2018-05-26T08:29:27.823Z,4.83
2018-05-26T08:31:55.263Z,4.50
2018-05-26T08:34:22.693Z,4.63
2018-05-26T08:36:50.127Z,5.27
2018-05-26T08:39:18.342Z,5.83
2018-05-26T08:41:45.769Z,4.80
2018-05-26T08:44:13.983Z,4.50
2018-05-26T08:46:41.418Z,4.27
2018-05-26T08:49:09.251Z,6.07
2018-05-26T08:51:36.690Z,4.93
2018-05-26T08:54:04.576Z,5.20
2018-05-26T08:56:32.005Z,5.50
2018-05-26T08:58:59.564Z,6.50
2018-05-26T09:01:27.002Z,4.67
2018-05-26T09:03:54.491Z,5.30
2018-05-26T09:06:21.965Z,5.20
2018-05-26T09:08:49.798Z,4.40
2018-05-26T09:11:17.717Z,4.73
2018-05-26T09:13:45.533Z,4.70
2018-05-26T09:16:12.979Z,3.80
2018-05-26T09:18:41.777Z,4.43
2018-05-26T09:21:09.231Z,5.50
2018-05-26T09:23:37.071Z,4.50
2018-05-26T09:26:04.494Z,5.73
2018-05-26T09:28:32.695Z,4.03
2018-05-26T09:31:00.130Z,6.33
2018-05-26T09:33:27.557Z,4.53
2018-05-26T09:35:55.018Z,4.03
2018-05-26T09:38:23.944Z,5.40
2018-05-26T09:40:51.770Z,5.40
2018-05-26T09:43:19.215Z,4.70
2018-05-26T09:45:46.642Z,3.73
2018-05-26T09:48:14.191Z,4.07
2018-05-26T09:50:42.901Z,4.57
2018-05-26T09:53:11.234Z,7.00
2018-05-26T09:55:39.251Z,3.43
2018-05-26T09:58:07.496Z,3.70
2018-05-26T10:00:34.922Z,4.47
2018-05-26T10:03:03.157Z,3.77
2018-05-26T10:05:30.583Z,4.27
2018-05-26T10:07:58.027Z,3.73
2018-05-26T10:10:25.459Z,3.80
2018-05-26T10:12:52.890Z,3.53
2018-05-26T10:15:20.335Z,4.30
2018-05-26T10:17:47.784Z,4.17
2018-05-26T10:20:15.968Z,3.30
2018-05-26T10:22:43.411Z,9.13
2018-05-26T10:25:10.848Z,4.13
2018-05-26T10:27:38.291Z,3.60
2018-05-26T10:30:05.751Z,4.70
2018-05-26T10:32:33.164Z,3.63
2018-05-26T10:35:00.595Z,6.80
2018-05-26T10:37:28.058Z,6.50
2018-05-26T10:39:55.495Z,3.23
2018-05-26T10:42:22.938Z,3.90
2018-05-26T10:44:50.364Z,3.27
2018-05-26T10:47:18.203Z,2.80
2018-05-26T10:49:45.641Z,3.43
2018-05-26T10:52:18.864Z,7.27
2018-05-26T10:54:46.295Z,3.30
2018-05-26T10:57:13.746Z,3.60
2018-05-26T10:59:41.588Z,3.63
2018-05-26T11:02:09.020Z,3.87
2018-05-26T11:04:36.481Z,2.90
2018-05-26T11:07:04.687Z,2.70
2018-05-26T11:09:32.126Z,2.83
2018-05-26T11:11:59.569Z,2.37
2018-05-26T11:14:27.089Z,2.40
2018-05-26T11:16:54.491Z,2.60
2018-05-26T11:19:22.329Z,2.63
2018-05-26T11:21:50.534Z,2.87
2018-05-26T11:24:17.990Z,3.00
2018-05-26T11:26:45.402Z,3.33
2018-05-26T11:29:13.621Z,4.07
2018-05-26T11:31:41.449Z,2.73
2018-05-26T11:34:09.655Z,2.83
2018-05-26T11:36:37.088Z,2.93
2018-05-26T11:39:05.298Z,3.00
2018-05-26T11:41:32.723Z,2.80
2018-05-26T11:44:00.157Z,3.13
2018-05-26T11:46:28.376Z,2.77
2018-05-26T11:48:55.816Z,3.33
2018-05-26T11:51:23.248Z,2.73
2018-05-26T11:53:51.461Z,2.50
2018-05-26T11:56:18.897Z,2.90
2018-05-26T11:58:46.330Z,3.07
2018-05-26T12:01:14.537Z,2.70
2018-05-26T12:03:41.988Z,3.03
2018-05-26T12:06:09.816Z,2.80
2018-05-26T12:08:37.638Z,4.73
2018-05-26T12:11:05.208Z,2.40
2018-05-26T12:13:32.611Z,4.00
2018-05-26T12:16:00.443Z,2.87
2018-05-26T12:18:27.879Z,2.97
2018-05-26T12:20:55.324Z,3.53
2018-05-26T12:23:22.775Z,3.40
2018-05-26T12:25:50.211Z,4.77
2018-05-26T12:28:18.411Z,2.80
2018-05-26T12:30:45.851Z,3.00
2018-05-26T12:33:13.288Z,3.60
2018-05-26T12:35:41.499Z,3.03
2018-05-26T12:38:08.927Z,3.43
2018-05-26T12:40:36.368Z,3.03
2018-05-26T12:43:04.583Z,2.30
2018-05-26T12:45:32.033Z,2.93
2018-05-26T12:47:59.461Z,3.57
2018-05-26T12:50:27.665Z,2.73
2018-05-26T12:52:55.123Z,4.10
2018-05-26T12:55:22.557Z,2.97
2018-05-26T12:57:50.759Z,2.47
2018-05-26T13:00:18.982Z,2.30
2018-05-26T13:02:46.413Z,2.53
2018-05-26T13:05:13.870Z,2.67
2018-05-26T13:07:41.303Z,2.63
2018-05-26T13:10:08.738Z,2.50
2018-05-26T13:12:36.170Z,2.63
2018-05-26T13:15:04.383Z,2.77
2018-05-26T13:17:31.816Z,2.77
2018-05-26T13:19:59.264Z,2.47
2018-05-26T13:22:27.467Z,2.70
2018-05-26T13:24:54.899Z,3.27
2018-05-26T13:27:22.347Z,2.50
2018-05-26T13:29:50.552Z,3.30
2018-05-26T13:32:18.008Z,3.30
2018-05-26T13:34:45.447Z,3.73
2018-05-26T13:37:12.884Z,2.70
2018-05-26T13:39:41.095Z,2.90
2018-05-26T13:42:08.550Z,3.00
2018-05-26T13:44:35.979Z,3.37
2018-05-26T13:47:04.196Z,4.53
2018-05-26T13:49:31.655Z,2.77
2018-05-26T13:51:59.165Z,2.53
2018-05-26T13:54:26.536Z,3.07
2018-05-26T13:56:54.731Z,3.10
2018-05-26T13:59:22.211Z,3.80
2018-05-26T14:01:49.655Z,2.93
2018-05-26T14:04:17.091Z,3.53
2018-05-26T14:06:44.920Z,3.20
2018-05-26T14:09:13.133Z,2.93
2018-05-26T14:11:40.577Z,3.40
2018-05-26T14:14:08.014Z,3.30
2018-05-26T14:16:36.270Z,3.70
2018-05-26T14:19:03.673Z,3.80
2018-05-26T14:21:31.115Z,2.63
2018-05-26T14:23:58.540Z,3.63
2018-05-26T14:26:25.978Z,3.30
2018-05-26T14:28:53.427Z,3.40
2018-05-26T14:31:20.883Z,3.73
2018-05-26T14:33:48.346Z,3.40
2018-05-26T14:36:15.786Z,3.10
2018-05-26T14:38:43.234Z,3.13
2018-05-26T14:41:10.677Z,3.20
2018-05-26T14:43:38.120Z,3.43
2018-05-26T14:46:05.557Z,3.10
2018-05-26T14:48:33.762Z,3.53
2018-05-26T14:51:01.191Z,6.10
2018-05-26T14:53:29.399Z,4.13
2018-05-26T14:55:56.833Z,2.93
2018-05-26T14:58:24.272Z,2.93
2018-05-26T15:00:52.483Z,3.60
2018-05-26T15:03:19.920Z,3.40
2018-05-26T15:05:47.346Z,5.27
2018-05-26T15:08:14.841Z,3.27
2018-05-26T15:10:42.253Z,2.90
2018-05-26T15:13:09.739Z,3.30
2018-05-26T15:15:37.168Z,3.63
2018-05-26T15:18:04.618Z,3.17
2018-05-26T15:20:32.079Z,3.93
2018-05-26T15:22:59.905Z,3.30
2018-05-26T15:25:27.348Z,3.33
2018-05-26T15:27:54.799Z,6.90
2018-05-26T15:30:22.227Z,8.07
2018-05-26T15:32:50.443Z,4.40
2018-05-26T15:35:17.889Z,3.20
2018-05-26T15:37:45.327Z,3.70
2018-05-26T15:40:12.763Z,3.57
2018-05-26T15:42:40.976Z,4.40
2018-05-26T15:45:08.421Z,8.67
2018-05-26T15:47:35.879Z,9.33
2018-05-26T15:50:03.315Z,4.67
2018-05-26T15:52:31.515Z,4.40
2018-05-26T15:54:58.943Z,2.97
2018-05-26T15:57:27.150Z,4.57
2018-05-26T15:59:54.623Z,4.00
2018-05-26T16:02:22.099Z,2.97
2018-05-26T16:04:49.542Z,4.17
2018-05-26T16:07:16.976Z,4.13
2018-05-26T16:09:44.413Z,6.50
2018-05-26T16:12:11.863Z,2.90
2018-05-26T16:14:39.303Z,3.50
2018-05-26T16:17:07.902Z,3.40
2018-05-26T16:19:35.336Z,5.50
2018-05-26T16:22:03.531Z,3.40
2018-05-26T16:24:30.973Z,11.33
2018-05-26T16:26:59.177Z,3.80
2018-05-26T16:29:26.639Z,4.90
2018-05-26T16:31:54.817Z,3.60
2018-05-26T16:34:22.243Z,3.43
2018-05-26T16:36:49.674Z,5.00
2018-05-26T16:39:17.110Z,4.70
2018-05-26T16:41:44.539Z,3.87
2018-05-26T16:44:11.992Z,4.87
2018-05-26T16:46:40.190Z,7.10
2018-05-26T16:49:07.631Z,4.10
2018-05-26T16:51:35.832Z,6.83
2018-05-26T16:54:03.283Z,4.87
2018-05-26T16:56:30.707Z,5.97
2018-05-26T16:58:58.140Z,4.73
2018-05-26T17:01:26.348Z,4.73
2018-05-26T17:03:53.781Z,6.20
2018-05-26T17:06:21.987Z,4.83
2018-05-26T17:08:49.422Z,4.60
2018-05-26T17:11:16.863Z,9.47
2018-05-26T17:13:44.303Z,5.00
2018-05-26T17:16:12.509Z,5.30
2018-05-26T17:18:41.078Z,5.17
2018-05-26T17:21:08.523Z,8.70
2018-05-26T17:23:36.720Z,4.97
2018-05-26T17:26:04.160Z,5.87
2018-05-26T17:28:31.597Z,5.07
2018-05-26T17:30:59.810Z,5.37
2018-05-26T17:33:27.242Z,5.20
2018-05-26T17:35:54.683Z,7.63
2018-05-26T17:38:22.880Z,6.10
2018-05-26T17:40:50.711Z,5.33
2018-05-26T17:43:18.161Z,5.13
2018-05-26T17:45:45.634Z,7.17
2018-05-26T17:48:13.850Z,7.73
2018-05-26T17:50:42.045Z,5.70
2018-05-26T17:53:09.485Z,7.97
2018-05-26T17:55:36.929Z,6.73
2018-05-26T17:58:04.407Z,7.03
2018-05-26T18:00:31.831Z,6.67
2018-05-26T18:02:59.263Z,7.60
2018-05-26T18:05:27.485Z,6.00
2018-05-26T18:07:54.924Z,6.17
2018-05-26T18:10:22.346Z,5.90
2018-05-26T18:12:50.557Z,6.47
2018-05-26T18:15:17.996Z,6.87
2018-05-26T18:17:45.435Z,6.90
2018-05-26T18:20:13.643Z,6.33
2018-05-26T18:22:41.083Z,6.13
2018-05-26T18:25:08.506Z,6.83
2018-05-26T18:27:35.951Z,7.70
2018-05-26T18:30:03.391Z,9.20
2018-05-26T18:32:30.830Z,7.00
2018-05-26T18:34:58.275Z,8.53
2018-05-26T18:37:25.706Z,7.50
2018-05-26T18:39:53.908Z,7.87
2018-05-26T18:42:21.344Z,6.60
2018-05-26T18:44:48.779Z,7.17
2018-05-26T18:47:16.996Z,8.80
2018-05-26T18:49:45.186Z,8.37
2018-05-26T18:52:12.635Z,9.50
2018-05-26T18:54:40.076Z,7.07
2018-05-26T18:57:07.508Z,8.33
2018-05-26T18:59:35.709Z,6.80
2018-05-26T19:02:03.149Z,7.73
2018-05-26T19:04:30.584Z,7.47
2018-05-26T19:06:58.798Z,7.43
2018-05-26T19:09:26.231Z,7.97
2018-05-26T19:11:54.064Z,8.60
2018-05-26T19:14:21.497Z,8.17
2018-05-26T19:16:48.938Z,7.40
2018-05-26T19:19:16.380Z,7.47
2018-05-26T19:21:44.198Z,7.33
2018-05-26T19:24:11.640Z,7.53
2018-05-26T19:26:39.131Z,8.90
2018-05-26T19:29:06.517Z,8.33
2018-05-26T19:31:33.951Z,7.03
2018-05-26T19:34:01.396Z,7.80
2018-05-26T19:36:29.609Z,7.43
2018-05-26T19:38:57.058Z,15.30
2018-05-26T19:41:24.481Z,7.57
2018-05-26T19:43:52.687Z,8.83
2018-05-26T19:46:21.260Z,10.37
2018-05-26T19:48:48.695Z,7.50
2018-05-26T19:51:16.903Z,8.50
2018-05-26T19:53:45.106Z,7.83
2018-05-26T19:56:12.939Z,9.57
2018-05-26T19:58:41.147Z,8.97
2018-05-26T20:01:08.578Z,11.07
2018-05-26T20:03:36.026Z,8.50
2018-05-26T20:06:03.463Z,7.67
2018-05-26T20:08:30.907Z,8.20
2018-05-26T20:10:59.110Z,8.93
2018-05-26T20:13:26.543Z,9.30
2018-05-26T20:15:54.749Z,7.83
2018-05-26T20:18:22.202Z,8.00
2018-05-26T20:20:49.654Z,7.40
2018-05-26T20:23:17.484Z,10.27
2018-05-26T20:25:45.314Z,9.07
2018-05-26T20:28:12.750Z,8.10
2018-05-26T20:30:40.199Z,9.63
2018-05-26T20:33:07.652Z,8.93
2018-05-26T20:35:35.482Z,9.03
2018-05-26T20:38:03.340Z,9.60
2018-05-26T20:40:31.558Z,10.47
2018-05-26T20:42:59.038Z,8.43
2018-05-26T20:45:26.519Z,9.13
2018-05-26T20:47:53.955Z,7.70
2018-05-26T20:50:21.402Z,12.03
2018-05-26T20:52:48.839Z,9.20
2018-05-26T20:55:16.295Z,9.27
2018-05-26T20:57:43.726Z,11.47
2018-05-26T21:00:11.927Z,8.00
2018-05-26T21:02:39.407Z,9.33
2018-05-26T21:05:06.840Z,8.60
2018-05-26T21:07:34.279Z,8.03
2018-05-26T21:10:01.726Z,8.67
2018-05-26T21:12:29.924Z,9.10
2018-05-26T21:14:57.367Z,9.70
2018-05-26T21:17:24.800Z,10.03
2018-05-26T21:19:53.009Z,9.50
2018-05-26T21:22:20.453Z,11.70
2018-05-26T21:24:47.898Z,10.60
2018-05-26T21:27:15.727Z,10.40
2018-05-26T21:29:43.955Z,8.87
2018-05-26T21:32:12.138Z,10.50
2018-05-26T21:34:39.578Z,9.00
2018-05-26T21:37:07.782Z,8.90
2018-05-26T21:39:35.606Z,8.80
2018-05-26T21:42:03.037Z,9.70
2018-05-26T21:44:30.474Z,8.17
2018-05-26T21:46:57.922Z,11.30
2018-05-26T21:49:25.351Z,8.90
2018-05-26T21:51:52.790Z,8.23
2018-05-26T21:54:20.223Z,10.13
2018-05-26T21:56:48.432Z,9.23
2018-05-26T21:59:15.858Z,9.23
2018-05-26T22:01:44.071Z,9.77
2018-05-26T22:04:11.928Z,8.07
2018-05-26T22:06:39.749Z,8.47
2018-05-26T22:09:07.181Z,7.77
2018-05-26T22:11:34.622Z,9.80
2018-05-26T22:14:02.068Z,10.80
2018-05-26T22:16:29.516Z,9.60
2018-05-26T22:18:56.942Z,8.30
2018-05-26T22:21:25.152Z,11.50
2018-05-26T22:23:53.354Z,12.30
2018-05-26T22:28:42.739Z,7.63
2018-05-26T22:31:10.574Z,11.27
2018-05-26T22:33:38.009Z,6.83
2018-05-26T22:36:05.842Z,7.70
2018-05-26T22:38:33.321Z,8.23
2018-05-26T22:41:00.717Z,7.63
2018-05-26T22:43:28.164Z,9.33
2018-05-26T22:45:55.617Z,9.50
2018-05-26T22:48:23.050Z,7.73
2018-05-26T22:50:50.506Z,7.60
2018-05-26T22:53:18.705Z,9.97
2018-05-26T22:55:47.279Z,9.43
2018-05-26T22:58:14.718Z,7.93
2018-05-26T23:00:42.151Z,7.17
2018-05-26T23:03:09.586Z,7.40
2018-05-26T23:05:37.011Z,11.40
2018-05-26T23:08:04.455Z,7.30
2018-05-26T23:10:31.887Z,7.57
2018-05-26T23:13:00.126Z,9.30
2018-05-26T23:15:28.319Z,7.70
2018-05-26T23:17:55.754Z,7.70
2018-05-26T23:20:23.198Z,7.23
2018-05-26T23:22:50.647Z,6.77
2018-05-26T23:25:18.082Z,7.07
2018-05-26T23:27:45.918Z,7.90
2018-05-26T23:30:14.131Z,8.13
2018-05-26T23:32:42.342Z,6.80
2018-05-26T23:35:10.170Z,7.10
2018-05-26T23:37:38.756Z,7.50
2018-05-26T23:40:06.195Z,7.43
2018-05-26T23:42:34.030Z,8.90
2018-05-26T23:45:02.246Z,8.17
2018-05-26T23:47:29.682Z,8.33
2018-05-26T23:49:57.119Z,7.30
2018-05-26T23:52:24.959Z,7.37
2018-05-26T23:54:52.395Z,11.40
2018-05-26T23:57:20.227Z,7.50
2018-05-26T23:59:47.663Z,7.70
